sensor_id;sensor_type;location;lat;lon;timestamp;P1;durP1;ratioP1;P2;durP2;ratioP2
74630;SDS011;63138;55.082;38.804;2023-05-18T00:00:23;12.65;;;8.10;;
74630;SDS011;63138;55.082;38.804;2023-05-18T00:02:49;13.80;;;8.50;;
74630;SDS011;63138;55.082;38.804;2023-05-18T00:05:15;16.63;;;8.75;;
74630;SDS011;63138;55.082;38.804;2023-05-18T00:07:44;14.65;;;8.70;;
74630;SDS011;63138;55.082;38.804;2023-05-18T00:10:12;13.77;;;7.80;;
74630;SDS011;63138;55.082;38.804;2023-05-18T00:12:38;13.50;;;8.50;;
74630;SDS011;63138;55.082;38.804;2023-05-18T00:15:04;12.00;;;7.28;;
74630;SDS011;63138;55.082;38.804;2023-05-18T00:17:33;11.60;;;6.72;;
74630;SDS011;63138;55.082;38.804;2023-05-18T00:19:59;12.30;;;8.07;;
74630;SDS011;63138;55.082;38.804;2023-05-18T00:22:26;15.55;;;8.55;;
74630;SDS011;63138;55.082;38.804;2023-05-18T00:24:52;14.80;;;9.05;;
74630;SDS011;63138;55.082;38.804;2023-05-18T00:27:18;13.63;;;8.30;;
74630;SDS011;63138;55.082;38.804;2023-05-18T00:29:45;15.30;;;8.80;;
74630;SDS011;63138;55.082;38.804;2023-05-18T00:32:30;16.23;;;9.23;;
74630;SDS011;63138;55.082;38.804;2023-05-18T00:34:58;14.13;;;8.30;;
74630;SDS011;63138;55.082;38.804;2023-05-18T00:37:25;15.60;;;9.90;;
74630;SDS011;63138;55.082;38.804;2023-05-18T00:39:52;15.63;;;10.02;;
74630;SDS011;63138;55.082;38.804;2023-05-18T00:42:18;16.90;;;9.40;;
74630;SDS011;63138;55.082;38.804;2023-05-18T00:44:45;13.25;;;9.02;;
74630;SDS011;63138;55.082;38.804;2023-05-18T00:47:11;16.85;;;9.13;;
74630;SDS011;63138;55.082;38.804;2023-05-18T00:49:37;16.45;;;9.43;;
74630;SDS011;63138;55.082;38.804;2023-05-18T00:52:03;13.37;;;9.33;;
74630;SDS011;63138;55.082;38.804;2023-05-18T00:54:30;14.90;;;9.68;;
74630;SDS011;63138;55.082;38.804;2023-05-18T00:56:57;15.10;;;8.90;;
74630;SDS011;63138;55.082;38.804;2023-05-18T00:59:27;13.85;;;8.98;;
74630;SDS011;63138;55.082;38.804;2023-05-18T01:01:53;14.70;;;8.90;;
74630;SDS011;63138;55.082;38.804;2023-05-18T01:04:20;16.85;;;9.00;;
74630;SDS011;63138;55.082;38.804;2023-05-18T01:06:49;20.63;;;11.55;;
74630;SDS011;63138;55.082;38.804;2023-05-18T01:09:22;17.00;;;9.98;;
74630;SDS011;63138;55.082;38.804;2023-05-18T01:12:01;18.42;;;10.48;;
74630;SDS011;63138;55.082;38.804;2023-05-18T01:17:44;19.58;;;12.05;;
74630;SDS011;63138;55.082;38.804;2023-05-18T01:23:50;25.70;;;13.10;;
74630;SDS011;63138;55.082;38.804;2023-05-18T01:26:22;23.92;;;12.48;;
74630;SDS011;63138;55.082;38.804;2023-05-18T01:28:55;24.23;;;13.17;;
74630;SDS011;63138;55.082;38.804;2023-05-18T01:31:24;22.58;;;13.88;;
74630;SDS011;63138;55.082;38.804;2023-05-18T01:33:50;25.85;;;13.70;;
74630;SDS011;63138;55.082;38.804;2023-05-18T01:36:17;30.80;;;13.13;;
74630;SDS011;63138;55.082;38.804;2023-05-18T01:38:44;24.38;;;13.52;;
74630;SDS011;63138;55.082;38.804;2023-05-18T01:41:11;28.37;;;13.53;;
74630;SDS011;63138;55.082;38.804;2023-05-18T01:50:28;25.05;;;13.80;;
74630;SDS011;63138;55.082;38.804;2023-05-18T01:52:36;25.02;;;13.55;;
74630;SDS011;63138;55.082;38.804;2023-05-18T01:55:07;25.83;;;13.77;;
74630;SDS011;63138;55.082;38.804;2023-05-18T01:57:36;24.00;;;13.60;;
74630;SDS011;63138;55.082;38.804;2023-05-18T02:00:06;21.90;;;12.77;;
74630;SDS011;63138;55.082;38.804;2023-05-18T02:02:45;25.15;;;13.57;;
74630;SDS011;63138;55.082;38.804;2023-05-18T02:05:13;22.38;;;13.05;;
74630;SDS011;63138;55.082;38.804;2023-05-18T02:07:40;16.87;;;10.37;;
74630;SDS011;63138;55.082;38.804;2023-05-18T02:10:08;15.63;;;10.10;;
74630;SDS011;63138;55.082;38.804;2023-05-18T02:12:35;17.15;;;9.88;;
74630;SDS011;63138;55.082;38.804;2023-05-18T02:15:26;16.35;;;10.25;;
74630;SDS011;63138;55.082;38.804;2023-05-18T02:17:53;10.95;;;8.32;;
74630;SDS011;63138;55.082;38.804;2023-05-18T02:20:22;14.70;;;9.23;;
74630;SDS011;63138;55.082;38.804;2023-05-18T02:22:50;15.00;;;9.93;;
74630;SDS011;63138;55.082;38.804;2023-05-18T02:25:19;16.38;;;10.38;;
74630;SDS011;63138;55.082;38.804;2023-05-18T02:27:47;16.80;;;10.55;;
74630;SDS011;63138;55.082;38.804;2023-05-18T02:30:16;16.60;;;10.80;;
74630;SDS011;63138;55.082;38.804;2023-05-18T02:32:42;17.07;;;10.83;;
74630;SDS011;63138;55.082;38.804;2023-05-18T02:35:14;18.38;;;11.02;;
74630;SDS011;63138;55.082;38.804;2023-05-18T02:37:40;19.17;;;10.30;;
74630;SDS011;63138;55.082;38.804;2023-05-18T02:40:09;17.45;;;10.38;;
74630;SDS011;63138;55.082;38.804;2023-05-18T02:42:38;18.58;;;10.20;;
74630;SDS011;63138;55.082;38.804;2023-05-18T02:45:05;21.80;;;11.17;;
74630;SDS011;63138;55.082;38.804;2023-05-18T02:47:32;22.48;;;11.32;;
74630;SDS011;63138;55.082;38.804;2023-05-18T02:49:59;18.77;;;11.43;;
74630;SDS011;63138;55.082;38.804;2023-05-18T02:52:25;23.83;;;11.82;;
74630;SDS011;63138;55.082;38.804;2023-05-18T02:54:52;24.92;;;13.20;;
74630;SDS011;63138;55.082;38.804;2023-05-18T02:57:29;35.00;;;11.90;;
74630;SDS011;63138;55.082;38.804;2023-05-18T03:00:01;27.77;;;12.15;;
74630;SDS011;63138;55.082;38.804;2023-05-18T03:02:32;27.50;;;11.73;;
74630;SDS011;63138;55.082;38.804;2023-05-18T03:05:04;30.02;;;12.70;;
74630;SDS011;63138;55.082;38.804;2023-05-18T03:07:31;19.48;;;11.40;;
74630;SDS011;63138;55.082;38.804;2023-05-18T03:09:58;25.20;;;11.20;;
74630;SDS011;63138;55.082;38.804;2023-05-18T03:12:27;22.10;;;11.65;;
74630;SDS011;63138;55.082;38.804;2023-05-18T03:14:53;29.20;;;12.40;;
74630;SDS011;63138;55.082;38.804;2023-05-18T03:17:19;25.10;;;12.68;;
74630;SDS011;63138;55.082;38.804;2023-05-18T03:19:45;23.90;;;11.27;;
74630;SDS011;63138;55.082;38.804;2023-05-18T03:22:12;22.63;;;11.32;;
74630;SDS011;63138;55.082;38.804;2023-05-18T03:24:38;25.38;;;11.75;;
74630;SDS011;63138;55.082;38.804;2023-05-18T03:27:11;24.13;;;12.00;;
74630;SDS011;63138;55.082;38.804;2023-05-18T03:29:42;24.10;;;11.50;;
74630;SDS011;63138;55.082;38.804;2023-05-18T03:32:09;22.63;;;11.90;;
74630;SDS011;63138;55.082;38.804;2023-05-18T03:34:36;21.05;;;10.52;;
74630;SDS011;63138;55.082;38.804;2023-05-18T03:37:03;22.40;;;12.48;;
74630;SDS011;63138;55.082;38.804;2023-05-18T03:39:31;21.20;;;12.02;;
74630;SDS011;63138;55.082;38.804;2023-05-18T03:41:58;19.33;;;12.02;;
74630;SDS011;63138;55.082;38.804;2023-05-18T03:44:24;21.30;;;11.23;;
74630;SDS011;63138;55.082;38.804;2023-05-18T03:46:50;18.42;;;11.50;;
74630;SDS011;63138;55.082;38.804;2023-05-18T03:49:16;20.67;;;12.43;;
74630;SDS011;63138;55.082;38.804;2023-05-18T03:51:42;22.50;;;12.77;;
74630;SDS011;63138;55.082;38.804;2023-05-18T03:54:09;19.02;;;12.57;;
74630;SDS011;63138;55.082;38.804;2023-05-18T03:56:36;18.33;;;11.30;;
74630;SDS011;63138;55.082;38.804;2023-05-18T03:59:02;19.70;;;11.50;;
74630;SDS011;63138;55.082;38.804;2023-05-18T04:01:32;18.00;;;11.05;;
74630;SDS011;63138;55.082;38.804;2023-05-18T04:03:59;19.05;;;11.18;;
74630;SDS011;63138;55.082;38.804;2023-05-18T04:09:31;16.23;;;8.90;;
74630;SDS011;63138;55.082;38.804;2023-05-18T04:11:58;19.38;;;10.40;;
74630;SDS011;63138;55.082;38.804;2023-05-18T04:14:23;17.35;;;9.82;;
74630;SDS011;63138;55.082;38.804;2023-05-18T04:16:52;20.63;;;9.20;;
74630;SDS011;63138;55.082;38.804;2023-05-18T04:19:19;19.77;;;11.13;;
74630;SDS011;63138;55.082;38.804;2023-05-18T04:21:46;20.08;;;11.30;;
74630;SDS011;63138;55.082;38.804;2023-05-18T04:24:13;17.85;;;10.23;;
74630;SDS011;63138;55.082;38.804;2023-05-18T04:26:41;17.48;;;10.15;;
74630;SDS011;63138;55.082;38.804;2023-05-18T04:31:59;17.08;;;11.15;;
74630;SDS011;63138;55.082;38.804;2023-05-18T04:34:26;19.48;;;9.40;;
74630;SDS011;63138;55.082;38.804;2023-05-18T04:36:53;16.50;;;10.45;;
74630;SDS011;63138;55.082;38.804;2023-05-18T04:39:21;14.88;;;9.27;;
74630;SDS011;63138;55.082;38.804;2023-05-18T04:41:50;19.90;;;9.57;;
74630;SDS011;63138;55.082;38.804;2023-05-18T04:44:25;22.48;;;11.55;;
74630;SDS011;63138;55.082;38.804;2023-05-18T04:46:52;19.20;;;11.20;;
74630;SDS011;63138;55.082;38.804;2023-05-18T04:49:19;15.45;;;10.73;;
74630;SDS011;63138;55.082;38.804;2023-05-18T04:51:52;17.95;;;10.77;;
74630;SDS011;63138;55.082;38.804;2023-05-18T04:54:24;15.30;;;10.47;;
74630;SDS011;63138;55.082;38.804;2023-05-18T04:56:52;15.38;;;10.88;;
74630;SDS011;63138;55.082;38.804;2023-05-18T04:59:18;19.95;;;10.95;;
74630;SDS011;63138;55.082;38.804;2023-05-18T05:01:45;16.35;;;10.23;;
74630;SDS011;63138;55.082;38.804;2023-05-18T05:04:11;15.27;;;11.37;;
74630;SDS011;63138;55.082;38.804;2023-05-18T05:06:38;18.80;;;10.85;;
74630;SDS011;63138;55.082;38.804;2023-05-18T05:09:04;17.70;;;11.23;;
74630;SDS011;63138;55.082;38.804;2023-05-18T05:11:29;14.43;;;10.60;;
74630;SDS011;63138;55.082;38.804;2023-05-18T05:13:56;13.93;;;9.80;;
74630;SDS011;63138;55.082;38.804;2023-05-18T05:16:22;12.48;;;10.05;;
74630;SDS011;63138;55.082;38.804;2023-05-18T05:18:48;13.40;;;9.48;;
74630;SDS011;63138;55.082;38.804;2023-05-18T05:21:15;15.25;;;10.80;;
74630;SDS011;63138;55.082;38.804;2023-05-18T05:23:41;16.65;;;10.35;;
74630;SDS011;63138;55.082;38.804;2023-05-18T05:26:09;15.17;;;10.33;;
74630;SDS011;63138;55.082;38.804;2023-05-18T05:28:35;14.27;;;10.32;;
74630;SDS011;63138;55.082;38.804;2023-05-18T05:31:01;15.05;;;10.68;;
74630;SDS011;63138;55.082;38.804;2023-05-18T05:33:28;13.40;;;9.93;;
74630;SDS011;63138;55.082;38.804;2023-05-18T05:35:55;16.45;;;10.82;;
74630;SDS011;63138;55.082;38.804;2023-05-18T05:38:21;11.55;;;10.20;;
74630;SDS011;63138;55.082;38.804;2023-05-18T05:40:47;10.13;;;8.98;;
74630;SDS011;63138;55.082;38.804;2023-05-18T05:43:13;11.90;;;9.73;;
74630;SDS011;63138;55.082;38.804;2023-05-18T05:45:38;16.98;;;9.52;;
74630;SDS011;63138;55.082;38.804;2023-05-18T05:48:08;12.15;;;9.35;;
74630;SDS011;63138;55.082;38.804;2023-05-18T05:50:35;12.48;;;9.85;;
74630;SDS011;63138;55.082;38.804;2023-05-18T05:53:03;12.33;;;9.27;;
74630;SDS011;63138;55.082;38.804;2023-05-18T05:55:32;14.40;;;10.18;;
74630;SDS011;63138;55.082;38.804;2023-05-18T05:58:02;15.50;;;10.55;;
74630;SDS011;63138;55.082;38.804;2023-05-18T06:00:30;13.45;;;9.32;;
74630;SDS011;63138;55.082;38.804;2023-05-18T06:03:00;14.18;;;9.93;;
74630;SDS011;63138;55.082;38.804;2023-05-18T06:05:33;10.93;;;9.83;;
74630;SDS011;63138;55.082;38.804;2023-05-18T06:07:59;21.65;;;12.90;;
74630;SDS011;63138;55.082;38.804;2023-05-18T06:10:25;15.23;;;10.10;;
74630;SDS011;63138;55.082;38.804;2023-05-18T06:12:52;12.13;;;9.68;;
74630;SDS011;63138;55.082;38.804;2023-05-18T06:15:20;12.60;;;9.48;;
74630;SDS011;63138;55.082;38.804;2023-05-18T06:17:46;13.50;;;9.30;;
74630;SDS011;63138;55.082;38.804;2023-05-18T06:20:13;9.73;;;8.00;;
74630;SDS011;63138;55.082;38.804;2023-05-18T06:22:40;14.27;;;9.13;;
74630;SDS011;63138;55.082;38.804;2023-05-18T06:25:25;11.18;;;8.80;;
74630;SDS011;63138;55.082;38.804;2023-05-18T06:28:23;13.07;;;8.85;;
74630;SDS011;63138;55.082;38.804;2023-05-18T06:30:57;10.43;;;9.00;;
74630;SDS011;63138;55.082;38.804;2023-05-18T06:33:29;11.25;;;8.55;;
74630;SDS011;63138;55.082;38.804;2023-05-18T06:35:56;9.82;;;8.82;;
74630;SDS011;63138;55.082;38.804;2023-05-18T06:38:22;13.70;;;8.80;;
74630;SDS011;63138;55.082;38.804;2023-05-18T06:40:48;9.93;;;8.90;;
74630;SDS011;63138;55.082;38.804;2023-05-18T06:43:14;12.07;;;9.38;;
74630;SDS011;63138;55.082;38.804;2023-05-18T06:45:51;10.98;;;9.50;;
74630;SDS011;63138;55.082;38.804;2023-05-18T06:48:26;11.30;;;8.70;;
74630;SDS011;63138;55.082;38.804;2023-05-18T06:50:53;11.30;;;8.73;;
74630;SDS011;63138;55.082;38.804;2023-05-18T06:53:19;9.70;;;7.93;;
74630;SDS011;63138;55.082;38.804;2023-05-18T06:55:46;14.40;;;8.55;;
74630;SDS011;63138;55.082;38.804;2023-05-18T06:58:13;11.00;;;8.65;;
74630;SDS011;63138;55.082;38.804;2023-05-18T07:00:39;10.40;;;8.45;;
74630;SDS011;63138;55.082;38.804;2023-05-18T07:03:05;9.90;;;8.35;;
74630;SDS011;63138;55.082;38.804;2023-05-18T07:05:32;9.03;;;8.03;;
74630;SDS011;63138;55.082;38.804;2023-05-18T07:10:50;12.75;;;8.70;;
74630;SDS011;63138;55.082;38.804;2023-05-18T07:13:17;10.13;;;8.73;;
74630;SDS011;63138;55.082;38.804;2023-05-18T07:15:44;9.95;;;8.40;;
74630;SDS011;63138;55.082;38.804;2023-05-18T07:18:10;10.00;;;8.70;;
74630;SDS011;63138;55.082;38.804;2023-05-18T07:20:35;12.05;;;8.00;;
74630;SDS011;63138;55.082;38.804;2023-05-18T07:23:02;9.45;;;8.30;;
74630;SDS011;63138;55.082;38.804;2023-05-18T07:25:28;11.52;;;8.30;;
74630;SDS011;63138;55.082;38.804;2023-05-18T07:27:54;10.53;;;8.40;;
74630;SDS011;63138;55.082;38.804;2023-05-18T07:30:21;10.15;;;7.45;;
74630;SDS011;63138;55.082;38.804;2023-05-18T07:32:47;9.90;;;7.65;;
74630;SDS011;63138;55.082;38.804;2023-05-18T07:35:14;8.23;;;7.32;;
74630;SDS011;63138;55.082;38.804;2023-05-18T07:37:41;9.13;;;8.23;;
74630;SDS011;63138;55.082;38.804;2023-05-18T07:40:07;6.87;;;5.80;;
74630;SDS011;63138;55.082;38.804;2023-05-18T07:42:34;7.82;;;6.35;;
74630;SDS011;63138;55.082;38.804;2023-05-18T07:45:01;9.65;;;6.85;;
74630;SDS011;63138;55.082;38.804;2023-05-18T07:50:33;10.73;;;7.03;;
74630;SDS011;63138;55.082;38.804;2023-05-18T07:52:59;9.43;;;8.40;;
74630;SDS011;63138;55.082;38.804;2023-05-18T07:55:25;8.82;;;7.30;;
74630;SDS011;63138;55.082;38.804;2023-05-18T08:00:35;9.63;;;6.75;;
74630;SDS011;63138;55.082;38.804;2023-05-18T08:03:02;9.40;;;6.63;;
74630;SDS011;63138;55.082;38.804;2023-05-18T08:05:28;12.30;;;7.32;;
74630;SDS011;63138;55.082;38.804;2023-05-18T08:07:54;12.20;;;7.80;;
74630;SDS011;63138;55.082;38.804;2023-05-18T08:10:20;10.77;;;7.53;;
74630;SDS011;63138;55.082;38.804;2023-05-18T08:12:47;17.30;;;9.70;;
74630;SDS011;63138;55.082;38.804;2023-05-18T08:15:15;11.70;;;8.75;;
74630;SDS011;63138;55.082;38.804;2023-05-18T08:17:41;11.55;;;6.30;;
74630;SDS011;63138;55.082;38.804;2023-05-18T08:20:07;9.30;;;7.00;;
74630;SDS011;63138;55.082;38.804;2023-05-18T08:22:34;10.40;;;7.10;;
74630;SDS011;63138;55.082;38.804;2023-05-18T08:25:00;8.82;;;5.78;;
74630;SDS011;63138;55.082;38.804;2023-05-18T08:27:29;9.98;;;7.00;;
74630;SDS011;63138;55.082;38.804;2023-05-18T08:29:55;9.10;;;7.70;;
74630;SDS011;63138;55.082;38.804;2023-05-18T08:32:21;10.10;;;6.30;;
74630;SDS011;63138;55.082;38.804;2023-05-18T08:34:47;7.30;;;6.20;;
74630;SDS011;63138;55.082;38.804;2023-05-18T08:37:15;8.75;;;6.43;;
74630;SDS011;63138;55.082;38.804;2023-05-18T08:39:41;8.63;;;7.73;;
74630;SDS011;63138;55.082;38.804;2023-05-18T08:44:46;9.60;;;8.23;;
74630;SDS011;63138;55.082;38.804;2023-05-18T08:47:18;11.30;;;8.27;;
74630;SDS011;63138;55.082;38.804;2023-05-18T08:49:51;10.45;;;7.30;;
74630;SDS011;63138;55.082;38.804;2023-05-18T08:52:20;10.43;;;6.68;;
74630;SDS011;63138;55.082;38.804;2023-05-18T08:54:51;8.63;;;6.07;;
74630;SDS011;63138;55.082;38.804;2023-05-18T08:57:19;8.40;;;7.60;;
74630;SDS011;63138;55.082;38.804;2023-05-18T08:59:46;8.80;;;6.68;;
74630;SDS011;63138;55.082;38.804;2023-05-18T09:02:13;9.80;;;7.40;;
74630;SDS011;63138;55.082;38.804;2023-05-18T09:04:42;10.60;;;6.10;;
74630;SDS011;63138;55.082;38.804;2023-05-18T09:07:10;8.83;;;6.27;;
74630;SDS011;63138;55.082;38.804;2023-05-18T09:12:29;7.20;;;5.75;;
74630;SDS011;63138;55.082;38.804;2023-05-18T09:14:57;8.35;;;6.10;;
74630;SDS011;63138;55.082;38.804;2023-05-18T09:17:26;8.05;;;6.65;;
74630;SDS011;63138;55.082;38.804;2023-05-18T09:19:53;9.13;;;5.77;;
74630;SDS011;63138;55.082;38.804;2023-05-18T09:22:19;7.45;;;5.70;;
74630;SDS011;63138;55.082;38.804;2023-05-18T09:24:45;8.93;;;6.10;;
74630;SDS011;63138;55.082;38.804;2023-05-18T09:27:13;8.35;;;5.90;;
74630;SDS011;63138;55.082;38.804;2023-05-18T09:29:53;8.00;;;5.43;;
74630;SDS011;63138;55.082;38.804;2023-05-18T09:32:42;11.27;;;6.78;;
74630;SDS011;63138;55.082;38.804;2023-05-18T09:35:12;9.05;;;7.18;;
74630;SDS011;63138;55.082;38.804;2023-05-18T09:37:41;8.18;;;6.78;;
74630;SDS011;63138;55.082;38.804;2023-05-18T09:40:08;9.25;;;6.72;;
74630;SDS011;63138;55.082;38.804;2023-05-18T09:42:35;7.60;;;6.67;;
74630;SDS011;63138;55.082;38.804;2023-05-18T09:45:06;6.72;;;6.00;;
74630;SDS011;63138;55.082;38.804;2023-05-18T09:47:41;8.38;;;6.65;;
74630;SDS011;63138;55.082;38.804;2023-05-18T09:50:07;7.47;;;6.28;;
74630;SDS011;63138;55.082;38.804;2023-05-18T09:52:40;8.25;;;6.40;;
74630;SDS011;63138;55.082;38.804;2023-05-18T09:55:08;6.73;;;5.50;;
74630;SDS011;63138;55.082;38.804;2023-05-18T09:57:39;7.03;;;6.07;;
74630;SDS011;63138;55.082;38.804;2023-05-18T10:00:08;9.25;;;6.30;;
74630;SDS011;63138;55.082;38.804;2023-05-18T10:02:39;7.07;;;6.07;;
74630;SDS011;63138;55.082;38.804;2023-05-18T10:05:28;7.60;;;6.25;;
74630;SDS011;63138;55.082;38.804;2023-05-18T10:07:56;7.80;;;6.00;;
74630;SDS011;63138;55.082;38.804;2023-05-18T10:10:26;9.55;;;6.03;;
74630;SDS011;63138;55.082;38.804;2023-05-18T10:12:56;6.95;;;6.00;;
74630;SDS011;63138;55.082;38.804;2023-05-18T10:15:26;6.88;;;5.53;;
74630;SDS011;63138;55.082;38.804;2023-05-18T10:17:54;10.37;;;6.67;;
74630;SDS011;63138;55.082;38.804;2023-05-18T10:20:21;9.30;;;6.30;;
74630;SDS011;63138;55.082;38.804;2023-05-18T10:22:55;6.63;;;5.70;;
74630;SDS011;63138;55.082;38.804;2023-05-18T10:25:26;6.93;;;5.50;;
74630;SDS011;63138;55.082;38.804;2023-05-18T10:27:59;8.20;;;6.25;;
74630;SDS011;63138;55.082;38.804;2023-05-18T10:30:31;8.13;;;5.50;;
74630;SDS011;63138;55.082;38.804;2023-05-18T10:32:59;6.83;;;5.60;;
74630;SDS011;63138;55.082;38.804;2023-05-18T10:35:27;7.07;;;6.10;;
74630;SDS011;63138;55.082;38.804;2023-05-18T10:37:54;7.40;;;5.43;;
74630;SDS011;63138;55.082;38.804;2023-05-18T10:40:22;7.55;;;5.60;;
74630;SDS011;63138;55.082;38.804;2023-05-18T10:42:49;6.40;;;4.90;;
74630;SDS011;63138;55.082;38.804;2023-05-18T10:45:17;7.60;;;5.40;;
74630;SDS011;63138;55.082;38.804;2023-05-18T10:47:44;10.43;;;5.32;;
74630;SDS011;63138;55.082;38.804;2023-05-18T10:50:12;8.95;;;5.25;;
74630;SDS011;63138;55.082;38.804;2023-05-18T10:52:40;8.63;;;6.50;;
74630;SDS011;63138;55.082;38.804;2023-05-18T10:55:09;9.00;;;6.45;;
74630;SDS011;63138;55.082;38.804;2023-05-18T10:57:40;8.70;;;5.70;;
74630;SDS011;63138;55.082;38.804;2023-05-18T11:00:11;10.15;;;6.72;;
74630;SDS011;63138;55.082;38.804;2023-05-18T11:02:38;8.00;;;5.93;;
74630;SDS011;63138;55.082;38.804;2023-05-18T11:05:10;9.05;;;6.00;;
74630;SDS011;63138;55.082;38.804;2023-05-18T11:07:36;8.13;;;5.95;;
74630;SDS011;63138;55.082;38.804;2023-05-18T11:10:06;7.57;;;5.67;;
74630;SDS011;63138;55.082;38.804;2023-05-18T11:12:35;8.48;;;6.43;;
74630;SDS011;63138;55.082;38.804;2023-05-18T11:15:03;8.65;;;5.70;;
74630;SDS011;63138;55.082;38.804;2023-05-18T11:17:30;8.90;;;4.88;;
74630;SDS011;63138;55.082;38.804;2023-05-18T11:22:43;7.33;;;4.87;;
74630;SDS011;63138;55.082;38.804;2023-05-18T11:27:51;9.25;;;4.95;;
74630;SDS011;63138;55.082;38.804;2023-05-18T11:30:28;9.32;;;5.75;;
74630;SDS011;63138;55.082;38.804;2023-05-18T11:33:07;8.52;;;5.30;;
74630;SDS011;63138;55.082;38.804;2023-05-18T11:35:52;7.23;;;5.90;;
74630;SDS011;63138;55.082;38.804;2023-05-18T11:41:30;9.38;;;5.90;;
74630;SDS011;63138;55.082;38.804;2023-05-18T11:44:05;8.38;;;5.97;;
74630;SDS011;63138;55.082;38.804;2023-05-18T11:46:39;6.90;;;5.65;;
74630;SDS011;63138;55.082;38.804;2023-05-18T11:49:16;6.67;;;5.50;;
74630;SDS011;63138;55.082;38.804;2023-05-18T11:51:57;7.20;;;5.72;;
74630;SDS011;63138;55.082;38.804;2023-05-18T11:54:38;7.45;;;5.90;;
74630;SDS011;63138;55.082;38.804;2023-05-18T11:57:07;6.97;;;5.70;;
74630;SDS011;63138;55.082;38.804;2023-05-18T12:02:04;8.17;;;6.23;;
74630;SDS011;63138;55.082;38.804;2023-05-18T12:04:31;7.50;;;5.82;;
74630;SDS011;63138;55.082;38.804;2023-05-18T12:06:59;7.18;;;5.78;;
74630;SDS011;63138;55.082;38.804;2023-05-18T12:09:29;8.00;;;5.55;;
74630;SDS011;63138;55.082;38.804;2023-05-18T12:11:56;8.23;;;6.00;;
74630;SDS011;63138;55.082;38.804;2023-05-18T12:14:22;8.13;;;5.90;;
74630;SDS011;63138;55.082;38.804;2023-05-18T12:17:07;8.45;;;5.43;;
74630;SDS011;63138;55.082;38.804;2023-05-18T12:19:42;9.93;;;6.28;;
74630;SDS011;63138;55.082;38.804;2023-05-18T12:22:10;6.88;;;5.85;;
74630;SDS011;63138;55.082;38.804;2023-05-18T12:24:37;9.38;;;6.22;;
74630;SDS011;63138;55.082;38.804;2023-05-18T12:27:07;8.87;;;5.63;;
74630;SDS011;63138;55.082;38.804;2023-05-18T12:29:38;8.38;;;5.90;;
74630;SDS011;63138;55.082;38.804;2023-05-18T12:32:06;9.30;;;5.97;;
74630;SDS011;63138;55.082;38.804;2023-05-18T12:34:32;9.73;;;6.22;;
74630;SDS011;63138;55.082;38.804;2023-05-18T12:36:59;7.20;;;6.10;;
74630;SDS011;63138;55.082;38.804;2023-05-18T12:39:27;7.97;;;6.40;;
74630;SDS011;63138;55.082;38.804;2023-05-18T12:41:52;10.93;;;6.20;;
74630;SDS011;63138;55.082;38.804;2023-05-18T12:44:35;9.20;;;6.20;;
74630;SDS011;63138;55.082;38.804;2023-05-18T12:47:01;10.10;;;6.18;;
74630;SDS011;63138;55.082;38.804;2023-05-18T12:49:34;8.17;;;5.80;;
74630;SDS011;63138;55.082;38.804;2023-05-18T12:52:20;7.78;;;5.22;;
74630;SDS011;63138;55.082;38.804;2023-05-18T12:54:46;10.57;;;6.30;;
74630;SDS011;63138;55.082;38.804;2023-05-18T12:57:20;8.65;;;5.82;;
74630;SDS011;63138;55.082;38.804;2023-05-18T12:59:50;7.15;;;5.13;;
74630;SDS011;63138;55.082;38.804;2023-05-18T13:02:30;7.77;;;5.80;;
74630;SDS011;63138;55.082;38.804;2023-05-18T13:05:09;9.02;;;5.88;;
74630;SDS011;63138;55.082;38.804;2023-05-18T13:07:40;9.68;;;5.70;;
74630;SDS011;63138;55.082;38.804;2023-05-18T13:10:09;7.45;;;5.43;;
74630;SDS011;63138;55.082;38.804;2023-05-18T13:15:27;11.23;;;5.83;;
74630;SDS011;63138;55.082;38.804;2023-05-18T13:17:59;10.52;;;6.75;;
74630;SDS011;63138;55.082;38.804;2023-05-18T13:20:43;10.95;;;6.78;;
74630;SDS011;63138;55.082;38.804;2023-05-18T13:23:19;8.07;;;5.30;;
74630;SDS011;63138;55.082;38.804;2023-05-18T13:25:50;8.80;;;5.68;;
74630;SDS011;63138;55.082;38.804;2023-05-18T13:28:17;11.57;;;6.20;;
74630;SDS011;63138;55.082;38.804;2023-05-18T13:30:45;7.45;;;5.28;;
74630;SDS011;63138;55.082;38.804;2023-05-18T13:33:12;6.93;;;5.28;;
74630;SDS011;63138;55.082;38.804;2023-05-18T13:35:39;8.07;;;4.70;;
74630;SDS011;63138;55.082;38.804;2023-05-18T13:38:07;7.43;;;5.23;;
74630;SDS011;63138;55.082;38.804;2023-05-18T13:40:38;8.82;;;5.70;;
74630;SDS011;63138;55.082;38.804;2023-05-18T13:43:04;10.10;;;5.55;;
74630;SDS011;63138;55.082;38.804;2023-05-18T13:45:38;7.75;;;5.65;;
74630;SDS011;63138;55.082;38.804;2023-05-18T13:48:04;8.73;;;5.93;;
74630;SDS011;63138;55.082;38.804;2023-05-18T13:50:31;11.30;;;5.90;;
74630;SDS011;63138;55.082;38.804;2023-05-18T13:52:57;8.85;;;5.60;;
74630;SDS011;63138;55.082;38.804;2023-05-18T13:55:23;10.50;;;5.63;;
74630;SDS011;63138;55.082;38.804;2023-05-18T13:57:49;8.30;;;5.90;;
74630;SDS011;63138;55.082;38.804;2023-05-18T14:00:15;6.47;;;5.10;;
74630;SDS011;63138;55.082;38.804;2023-05-18T14:02:44;9.55;;;5.97;;
74630;SDS011;63138;55.082;38.804;2023-05-18T14:05:11;7.35;;;5.55;;
74630;SDS011;63138;55.082;38.804;2023-05-18T14:07:41;9.45;;;5.45;;
74630;SDS011;63138;55.082;38.804;2023-05-18T14:10:08;9.45;;;5.72;;
74630;SDS011;63138;55.082;38.804;2023-05-18T14:12:35;9.07;;;5.73;;
74630;SDS011;63138;55.082;38.804;2023-05-18T14:15:02;8.02;;;5.85;;
74630;SDS011;63138;55.082;38.804;2023-05-18T14:17:29;8.25;;;5.47;;
74630;SDS011;63138;55.082;38.804;2023-05-18T14:19:55;7.32;;;5.70;;
74630;SDS011;63138;55.082;38.804;2023-05-18T14:22:21;10.57;;;5.75;;
74630;SDS011;63138;55.082;38.804;2023-05-18T14:24:47;7.87;;;6.10;;
74630;SDS011;63138;55.082;38.804;2023-05-18T14:27:15;9.57;;;5.95;;
74630;SDS011;63138;55.082;38.804;2023-05-18T14:29:41;11.10;;;5.90;;
74630;SDS011;63138;55.082;38.804;2023-05-18T14:32:07;7.27;;;5.63;;
74630;SDS011;63138;55.082;38.804;2023-05-18T14:34:33;8.88;;;5.50;;
74630;SDS011;63138;55.082;38.804;2023-05-18T14:36:59;8.10;;;5.85;;
74630;SDS011;63138;55.082;38.804;2023-05-18T14:39:24;7.67;;;5.70;;
74630;SDS011;63138;55.082;38.804;2023-05-18T14:41:50;8.25;;;5.57;;
74630;SDS011;63138;55.082;38.804;2023-05-18T14:44:16;6.67;;;5.00;;
74630;SDS011;63138;55.082;38.804;2023-05-18T14:46:42;6.80;;;5.17;;
74630;SDS011;63138;55.082;38.804;2023-05-18T14:49:08;8.25;;;5.78;;
74630;SDS011;63138;55.082;38.804;2023-05-18T14:51:34;9.57;;;5.72;;
74630;SDS011;63138;55.082;38.804;2023-05-18T14:54:00;7.60;;;4.90;;
74630;SDS011;63138;55.082;38.804;2023-05-18T14:56:27;7.90;;;5.18;;
74630;SDS011;63138;55.082;38.804;2023-05-18T14:58:53;6.85;;;5.30;;
74630;SDS011;63138;55.082;38.804;2023-05-18T15:01:19;8.67;;;5.57;;
74630;SDS011;63138;55.082;38.804;2023-05-18T15:03:44;10.27;;;6.03;;
74630;SDS011;63138;55.082;38.804;2023-05-18T15:06:10;7.43;;;4.93;;
74630;SDS011;63138;55.082;38.804;2023-05-18T15:08:36;10.00;;;5.87;;
74630;SDS011;63138;55.082;38.804;2023-05-18T15:11:02;9.13;;;5.57;;
74630;SDS011;63138;55.082;38.804;2023-05-18T15:13:28;9.35;;;6.07;;
74630;SDS011;63138;55.082;38.804;2023-05-18T15:15:55;6.90;;;4.70;;
74630;SDS011;63138;55.082;38.804;2023-05-18T15:18:20;8.15;;;6.10;;